Time;durP1;ratioP1;P1;durP2;ratioP2;P2;SDS_P1;SDS_P2;PMS_P1;PMS_P2;Temp;Humidity;BMP_temperature;BMP_pressure;BME280_temperature;BME280_humidity;BME280_pressure;Samples;Min_cycle;Max_cycle;Signal;HPM_P1;HPM_P2
2023/08/15 00:02:02;;;;;;;8.90;5.60;;;;;;;27.35;100.00;96134.53;5061101;28;20024;-83
2023/08/15 00:04:27;;;;;;;11.57;5.40;;;;;;;27.32;100.00;96140.44;5061213;28;20025;-83
2023/08/15 00:06:53;;;;;;;7.63;5.38;;;;;;;27.21;100.00;96126.13;5061144;28;20235;-83
2023/08/15 00:09:18;;;;;;;8.38;5.90;;;;;;;27.49;100.00;96135.59;5045590;28;20017;-84
2023/08/15 00:11:44;;;;;;;8.65;5.25;;;;;;;27.44;100.00;96137.50;5060288;28;20023;-85
2023/08/15 00:14:11;;;;;;;10.68;5.38;;;;;;;27.33;100.00;96133.16;5045685;28;20384;-84
2023/08/15 00:16:42;;;;;;;9.68;6.35;;;;;;;27.23;100.00;96142.06;5064829;28;20016;-84
2023/08/15 00:19:08;;;;;;;7.43;5.13;;;;;;;27.35;100.00;96139.13;5047544;28;20017;-84
2023/08/15 00:21:33;;;;;;;11.10;5.55;;;;;;;27.04;100.00;96147.94;5045131;28;20032;-84
2023/08/15 00:23:59;;;;;;;8.57;5.25;;;;;;;27.15;100.00;96148.00;5044024;28;20095;-84
2023/08/15 00:26:24;;;;;;;7.45;6.03;;;;;;;27.12;100.00;96141.19;5047760;28;20036;-84
2023/08/15 00:28:59;;;;;;;7.35;4.78;;;;;;;27.03;100.00;96146.31;5043201;28;20728;-84
2023/08/15 00:31:27;;;;;;;8.05;6.07;;;;;;;27.15;100.00;96148.00;5051706;28;20052;-84
2023/08/15 00:33:53;;;;;;;8.02;5.47;;;;;;;26.94;100.00;96150.59;5052610;28;20961;-84
2023/08/15 00:36:18;;;;;;;8.10;5.72;;;;;;;27.01;100.00;96143.06;5045374;28;20490;-84
2023/08/15 00:38:44;;;;;;;9.73;5.72;;;;;;;26.95;100.00;96137.91;5066244;28;20021;-84
2023/08/15 00:41:10;;;;;;;11.65;6.25;;;;;;;26.87;100.00;96136.56;5044506;28;20025;-84
2023/08/15 00:43:36;;;;;;;8.65;6.25;;;;;;;27.01;100.00;96134.97;5052623;28;20797;-84
2023/08/15 00:46:05;;;;;;;12.00;6.82;;;;;;;26.92;100.00;96131.16;5053472;28;20036;-84
2023/08/15 00:48:32;;;;;;;8.70;6.85;;;;;;;26.84;100.00;96133.56;5050325;28;20025;-84
2023/08/15 00:51:00;;;;;;;10.70;7.20;;;;;;;26.44;100.00;96135.81;5064255;28;20109;-84
2023/08/15 00:53:30;;;;;;;10.38;6.53;;;;;;;26.51;100.00;96143.69;5048595;28;20115;-84
2023/08/15 00:55:57;;;;;;;12.93;6.43;;;;;;;26.32;100.00;96132.50;5063847;28;20028;-84
2023/08/15 00:58:24;;;;;;;9.65;6.70;;;;;;;26.53;100.00;96142.34;5047499;28;20517;-84
2023/08/15 01:00:51;;;;;;;10.05;7.18;;;;;;;26.63;100.00;96132.69;5061390;28;20817;-84
2023/08/15 01:03:18;;;;;;;9.02;6.95;;;;;;;26.61;100.00;96134.84;5049791;28;20016;-84
2023/08/15 01:05:44;;;;;;;8.55;6.35;;;;;;;26.44;100.00;96143.91;5062540;28;20022;-84
2023/08/15 01:08:10;;;;;;;9.23;7.28;;;;;;;26.45;100.00;96136.59;5040735;28;20032;-84
2023/08/15 01:10:39;;;;;;;9.57;6.78;;;;;;;26.34;100.00;96131.16;5039269;28;20027;-84
2023/08/15 01:13:28;;;;;;;9.20;6.88;;;;;;;26.64;100.00;96118.94;5055756;28;20031;-84
2023/08/15 01:15:54;;;;;;;12.13;7.95;;;;;;;26.50;100.00;96124.00;5061893;28;20029;-83
2023/08/15 01:18:38;;;;;;;8.60;6.53;;;;;;;26.54;100.00;96125.09;5055617;28;20023;-84
2023/08/15 01:21:05;;;;;;;12.13;7.20;;;;;;;26.69;100.00;96118.94;5038947;28;20029;-84
2023/08/15 01:23:42;;;;;;;9.68;7.03;;;;;;;26.44;100.00;96116.94;5040570;28;20032;-84
2023/08/15 01:26:08;;;;;;;8.77;6.78;;;;;;;26.37;100.00;96121.75;5059127;28;20146;-84
2023/08/15 01:28:34;;;;;;;12.48;7.57;;;;;;;26.08;100.00;96121.31;5055456;28;20020;-84
2023/08/15 01:31:12;;;;;;;8.80;7.13;;;;;;;26.03;100.00;96119.41;5036977;28;20017;-84
2023/08/15 01:34:36;;;;;;;11.13;7.80;;;;;;;25.84;100.00;96116.31;5066001;28;21416;-83
2023/08/15 01:37:11;;;;;;;9.20;7.13;;;;;;;26.25;100.00;96118.44;5023629;28;20111;-84
2023/08/15 01:39:40;;;;;;;8.43;7.10;;;;;;;26.30;100.00;96116.59;5052453;28;20017;-83
2023/08/15 01:42:07;;;;;;;11.25;6.72;;;;;;;26.35;100.00;96105.00;5049417;28;20056;-84
2023/08/15 01:44:40;;;;;;;9.63;7.55;;;;;;;26.44;100.00;96114.22;5065303;28;20032;-84
2023/08/15 01:47:06;;;;;;;9.15;6.32;;;;;;;26.16;100.00;96117.34;5059555;28;20028;-84
2023/08/15 01:49:31;;;;;;;9.05;6.50;;;;;;;26.28;100.00;96116.03;5041000;28;20037;-84
2023/08/15 01:51:58;;;;;;;11.13;7.10;;;;;;;26.12;100.00;96116.22;5049475;28;20021;-86
2023/08/15 01:54:24;;;;;;;11.18;6.43;;;;;;;26.14;100.00;96108.69;5075812;28;20032;-86
2023/08/15 01:56:50;;;;;;;10.00;7.07;;;;;;;25.89;100.00;96115.56;5062926;28;20025;-86
2023/08/15 01:59:16;;;;;;;12.15;6.95;;;;;;;25.98;100.00;96113.97;5057923;28;20032;-86
2023/08/15 02:01:41;;;;;;;11.40;6.47;;;;;;;25.93;100.00;96110.44;5049967;28;21335;-86
2023/08/15 02:04:07;;;;;;;10.80;6.88;;;;;;;25.73;100.00;96116.47;5038238;28;20072;-86
2023/08/15 02:06:32;;;;;;;8.93;6.60;;;;;;;25.92;100.00;96117.69;5042032;28;20024;-85
2023/08/15 02:09:01;;;;;;;8.48;6.13;;;;;;;25.98;100.00;96115.84;5043556;28;20021;-86
2023/08/15 02:11:30;;;;;;;11.48;6.82;;;;;;;26.06;100.00;96107.31;5053832;28;20052;-86
2023/08/15 02:13:55;;;;;;;8.50;6.20;;;;;;;26.04;100.00;96115.63;5047037;28;20040;-86
2023/08/15 02:16:21;;;;;;;8.38;6.38;;;;;;;26.17;100.00;96121.66;5042809;28;20028;-85
2023/08/15 02:18:47;;;;;;;9.25;7.25;;;;;;;26.17;100.00;96117.06;5062476;28;20029;-86
2023/08/15 02:21:13;;;;;;;10.30;6.10;;;;;;;26.13;100.00;96112.47;5035199;28;20496;-86
2023/08/15 02:23:39;;;;;;;7.53;6.07;;;;;;;26.29;100.00;96111.44;5054436;28;20020;-86
2023/08/15 02:26:04;;;;;;;9.32;6.15;;;;;;;26.16;100.00;96106.56;5042925;28;20157;-86
2023/08/15 02:28:31;;;;;;;10.30;6.68;;;;;;;26.19;100.00;96106.84;5047106;28;20036;-86
2023/08/15 02:30:57;;;;;;;12.43;6.95;;;;;;;26.20;100.00;96108.44;5038437;28;20029;-86
2023/08/15 02:33:23;;;;;;;8.98;6.15;;;;;;;26.16;100.00;96111.94;5037302;28;20078;-85
2023/08/15 02:35:51;;;;;;;10.75;5.93;;;;;;;25.97;100.00;96104.28;5054089;28;20035;-86
2023/08/15 02:38:16;;;;;;;9.60;6.25;;;;;;;26.03;100.00;96103.25;5056345;28;20023;-86
2023/08/15 02:40:43;;;;;;;9.50;6.82;;;;;;;26.23;100.00;96107.94;5054455;28;20046;-86
2023/08/15 02:43:10;;;;;;;9.25;6.05;;;;;;;26.00;100.00;96108.34;5038717;28;20036;-86
2023/08/15 02:45:36;;;;;;;11.18;7.00;;;;;;;25.92;100.00;96101.53;5054846;28;20478;-86
2023/08/15 02:48:01;;;;;;;9.02;6.57;;;;;;;26.03;100.00;96103.25;5037249;28;20038;-86
2023/08/15 02:50:28;;;;;;;11.18;6.93;;;;;;;25.91;100.00;96099.91;5038250;28;20028;-86
2023/08/15 02:52:54;;;;;;;10.88;6.88;;;;;;;25.98;100.00;96108.59;5058700;28;20035;-86
2023/08/15 02:55:34;;;;;;;9.73;6.20;;;;;;;25.71;100.00;96105.13;5058835;28;20502;-86
2023/08/15 02:57:59;;;;;;;11.82;7.13;;;;;;;25.32;100.00;96102.69;5049051;28;20017;-86
2023/08/15 03:00:25;;;;;;;9.85;6.25;;;;;;;25.17;100.00;96104.16;5045921;28;20363;-86
2023/08/15 03:02:52;;;;;;;13.85;7.38;;;;;;;25.34;100.00;96108.59;5039836;28;20044;-86
2023/08/15 03:05:18;;;;;;;11.57;6.75;;;;;;;25.29;100.00;96101.31;5047671;28;20124;-86
2023/08/15 03:07:43;;;;;;;12.57;7.72;;;;;;;25.21;100.00;96093.69;5059517;28;20033;-86
2023/08/15 03:10:09;;;;;;;11.88;7.43;;;;;;;24.87;100.00;96090.38;5060941;28;20741;-86
2023/08/15 03:12:35;;;;;;;8.55;6.40;;;;;;;25.01;100.00;96091.56;5061744;28;20016;-86
2023/08/15 03:15:00;;;;;;;12.55;6.50;;;;;;;25.24;100.00;96087.78;5048179;28;20203;-86
2023/08/15 03:17:26;;;;;;;12.88;7.28;;;;;;;25.33;100.00;96091.66;5060443;28;20024;-86
2023/08/15 03:19:54;;;;;;;8.35;6.47;;;;;;;25.26;100.00;96088.38;5047559;28;20029;-86
2023/08/15 03:22:19;;;;;;;10.77;6.40;;;;;;;25.13;100.00;96094.97;5046007;28;20012;-86
2023/08/15 03:24:57;;;;;;;9.50;6.13;;;;;;;25.11;100.00;96097.09;5043081;28;20094;-86
2023/08/15 03:27:23;;;;;;;13.23;6.40;;;;;;;25.43;100.00;96092.81;5061547;28;20035;-87
2023/08/15 03:29:49;;;;;;;10.48;7.38;;;;;;;25.73;100.00;96098.44;5050447;28;20021;-86
2023/08/15 03:32:14;;;;;;;10.20;6.35;;;;;;;25.90;100.00;96095.59;5059503;28;20021;-86
2023/08/15 03:34:40;;;;;;;8.30;5.97;;;;;;;25.53;100.00;96098.28;5040434;28;20032;-86
2023/08/15 03:37:06;;;;;;;11.10;6.10;;;;;;;25.29;100.00;96104.00;5044778;28;20437;-86
2023/08/15 03:39:31;;;;;;;10.95;6.07;;;;;;;25.55;100.00;96113.13;5062489;28;20650;-86
2023/08/15 03:41:57;;;;;;;9.48;6.10;;;;;;;25.69;100.00;96107.25;5062813;28;20025;-86
2023/08/15 03:44:22;;;;;;;7.90;6.07;;;;;;;25.59;100.00;96108.84;5045169;28;20074;-87
2023/08/15 03:46:48;;;;;;;11.15;6.65;;;;;;;25.49;100.00;96108.75;5046414;28;20024;-86
2023/08/15 03:49:16;;;;;;;9.13;5.85;;;;;;;25.29;100.00;96111.28;5048142;28;20056;-86
2023/08/15 03:51:41;;;;;;;10.75;6.88;;;;;;;25.42;100.00;96112.69;5051983;28;20017;-86
2023/08/15 03:54:08;;;;;;;11.07;6.18;;;;;;;25.59;100.00;96116.91;5046918;28;20017;-86
2023/08/15 03:56:38;;;;;;;11.57;6.70;;;;;;;25.49;100.00;96114.13;5054788;28;20032;-86
2023/08/15 03:59:04;;;;;;;11.63;6.00;;;;;;;25.40;100.00;96121.06;5044195;28;20419;-87
2023/08/15 04:01:37;;;;;;;12.52;6.50;;;;;;;25.50;100.00;96126.53;5050653;28;20250;-86
2023/08/15 04:04:03;;;;;;;9.85;6.35;;;;;;;25.69;100.00;96129.66;5050048;28;20016;-86
2023/08/15 04:06:30;;;;;;;10.90;6.32;;;;;;;25.72;100.00;96131.84;5053042;28;20035;-86
2023/08/15 04:08:56;;;;;;;9.57;5.85;;;;;;;25.67;100.00;96139.03;5062180;28;20063;-86
2023/08/15 04:11:22;;;;;;;9.13;5.85;;;;;;;25.60;100.00;96141.97;5045320;28;20052;-85
2023/08/15 04:13:48;;;;;;;7.53;5.72;;;;;;;25.62;100.00;96135.25;5058496;28;20487;-85
2023/08/15 04:16:14;;;;;;;9.13;5.80;;;;;;;25.58;100.00;96144.88;5054685;28;20549;-85
2023/08/15 04:18:40;;;;;;;11.93;5.82;;;;;;;25.70;100.00;96138.53;5060885;28;20024;-85
2023/08/15 04:21:06;;;;;;;7.70;5.93;;;;;;;25.59;100.00;96141.16;5039701;28;20503;-86
2023/08/15 04:23:31;;;;;;;13.07;6.20;;;;;;;25.92;100.00;96141.94;5039148;28;20025;-86
2023/08/15 04:25:57;;;;;;;8.35;5.68;;;;;;;26.24;100.00;96141.09;5059482;28;20025;-86
2023/08/15 04:28:24;;;;;;;9.88;5.72;;;;;;;26.36;100.00;96139.00;5057536;28;20439;-86
2023/08/15 04:30:50;;;;;;;10.70;5.10;;;;;;;26.25;100.00;96148.09;5049848;28;20112;-86
2023/08/15 04:33:16;;;;;;;7.45;5.60;;;;;;;26.26;100.00;96155.13;5046958;28;20024;-86
2023/08/15 04:35:41;;;;;;;10.98;6.45;;;;;;;26.33;100.00;96150.31;5059227;28;20040;-86
2023/08/15 04:38:07;;;;;;;9.40;6.05;;;;;;;26.32;100.00;96154.06;5053230;28;20016;-86
2023/08/15 04:40:34;;;;;;;12.23;6.60;;;;;;;26.31;100.00;96157.84;5057562;28;20690;-86
2023/08/15 04:43:10;;;;;;;8.98;5.80;;;;;;;26.45;100.00;96164.38;5061613;28;20070;-86
2023/08/15 04:45:40;;;;;;;8.07;5.97;;;;;;;26.58;100.00;96162.31;5052085;28;20025;-86
2023/08/15 04:48:10;;;;;;;8.40;6.43;;;;;;;26.44;100.00;96153.88;5052352;28;20017;-85
2023/08/15 04:50:36;;;;;;;10.23;6.00;;;;;;;26.50;100.00;96161.75;5059131;28;20016;-85
2023/08/15 04:53:03;;;;;;;10.57;6.82;;;;;;;26.28;100.00;96171.84;5040819;28;20048;-85
2023/08/15 04:55:28;;;;;;;10.40;6.55;;;;;;;26.23;100.00;96172.63;5039061;28;21334;-85
2023/08/15 04:57:54;;;;;;;12.65;6.40;;;;;;;26.35;100.00;96172.41;5041114;28;20033;-85
2023/08/15 05:00:20;;;;;;;9.70;6.95;;;;;;;26.31;100.00;96176.72;5039795;28;20102;-85
2023/08/15 05:03:19;;;;;;;10.77;6.30;;;;;;;26.49;100.00;96180.88;5048499;28;20020;-85
2023/08/15 05:05:45;;;;;;;12.90;6.35;;;;;;;26.90;100.00;96181.09;5042671;28;20111;-84
2023/08/15 05:08:12;;;;;;;8.93;6.30;;;;;;;26.97;100.00;96179.75;5058097;28;20190;-85
2023/08/15 05:10:37;;;;;;;11.43;5.93;;;;;;;26.79;100.00;96180.22;5045399;28;20024;-85
2023/08/15 05:13:03;;;;;;;14.50;6.38;;;;;;;26.71;100.00;96186.13;5038275;28;20088;-85
2023/08/15 05:15:29;;;;;;;8.50;6.03;;;;;;;26.92;100.00;96178.91;5039222;28;20032;-84
2023/08/15 05:17:59;;;;;;;17.20;6.28;;;;;;;27.13;100.00;96172.56;5041839;28;20040;-85
2023/08/15 05:20:25;;;;;;;9.07;5.57;;;;;;;27.32;100.00;96178.25;5056306;28;20029;-85
2023/08/15 05:22:50;;;;;;;7.65;5.45;;;;;;;27.33;100.00;96185.31;5051137;28;20032;-85
2023/08/15 05:25:17;;;;;;;6.50;5.00;;;;;;;27.54;100.00;96183.44;5043368;28;20055;-86
2023/08/15 05:27:50;;;;;;;6.50;5.10;;;;;;;27.80;100.00;96187.00;5053216;28;20083;-85
2023/08/15 05:30:16;;;;;;;8.23;5.47;;;;;;;28.02;100.00;96188.63;5061482;28;20037;-84
2023/08/15 05:32:51;;;;;;;10.07;5.78;;;;;;;27.60;100.00;96176.13;5049659;28;20023;-84
2023/08/15 05:35:17;;;;;;;9.77;5.28;;;;;;;27.27;100.00;96189.06;5059178;28;20391;-84
2023/08/15 05:37:42;;;;;;;9.98;5.22;;;;;;;27.66;100.00;96183.16;5063624;28;20024;-84
2023/08/15 05:40:08;;;;;;;11.15;6.07;;;;;;;28.03;100.00;96180.22;5050742;28;20020;-85
2023/08/15 05:42:34;;;;;;;6.88;5.10;;;;;;;28.01;100.00;96189.72;5050573;28;20031;-85
2023/08/15 05:45:00;;;;;;;9.73;4.90;;;;;;;28.41;100.00;96183.47;5044023;28;20020;-86
2023/08/15 05:47:36;;;;;;;8.73;5.63;;;;;;;28.20;100.00;96182.63;5064129;28;20021;-84
2023/08/15 05:50:03;;;;;;;7.38;5.25;;;;;;;28.31;100.00;96181.56;5044428;28;20793;-84
2023/08/15 05:52:28;;;;;;;13.30;5.40;;;;;;;29.08;100.00;96175.94;5059191;28;20017;-83
2023/08/15 05:54:55;;;;;;;7.35;5.07;;;;;;;28.99;100.00;96183.78;5049486;28;21335;-83
2023/08/15 05:57:20;;;;;;;7.25;4.70;;;;;;;28.79;100.00;96184.69;5045084;28;20017;-84
2023/08/15 05:59:46;;;;;;;10.00;4.78;;;;;;;28.35;100.00;96179.91;5072676;28;20048;-84
2023/08/15 06:02:13;;;;;;;8.45;5.03;;;;;;;28.10;100.00;96177.25;5065828;28;20674;-84
2023/08/15 06:04:38;;;;;;;8.20;5.45;;;;;;;27.39;100.00;96178.81;5064964;28;20032;-84
2023/08/15 06:07:04;;;;;;;7.68;4.93;;;;;;;27.85;100.00;96176.19;5040592;28;20020;-86
2023/08/15 06:09:30;;;;;;;8.75;5.13;;;;;;;28.41;100.00;96173.44;5044702;28;20139;-85
2023/08/15 06:12:01;;;;;;;7.18;5.28;;;;;;;28.90;100.00;96177.34;5049750;28;20090;-88
2023/08/15 06:14:27;;;;;;;7.43;4.75;;;;;;;28.87;100.00;96178.72;5047977;28;20521;-86
2023/08/15 06:16:57;;;;;;;7.30;4.90;;;;;;;29.00;100.00;96190.03;5049221;28;20025;-86
2023/08/15 06:19:23;;;;;;;9.52;5.85;;;;;;;28.95;100.00;96192.75;5055130;28;20036;-87
2023/08/15 06:21:48;;;;;;;12.02;6.47;;;;;;;29.48;100.00;96185.75;5046816;28;20267;-86
2023/08/15 06:24:14;;;;;;;8.43;5.13;;;;;;;29.60;100.00;96191.63;5042759;28;20032;-87
2023/08/15 06:26:40;;;;;;;7.50;5.00;;;;;;;29.78;100.00;96206.44;5054652;28;20086;-86
2023/08/15 06:29:06;;;;;;;7.93;5.40;;;;;;;29.72;100.00;96207.56;5050674;28;20051;-87
2023/08/15 06:31:33;;;;;;;8.73;5.00;;;;;;;30.01;100.00;96212.19;5054223;28;20100;-87
2023/08/15 06:33:59;;;;;;;8.52;5.40;;;;;;;30.05;100.00;96216.78;5041936;28;20127;-87
2023/08/15 06:36:25;;;;;;;8.32;4.78;;;;;;;30.05;100.00;96215.97;5034137;28;20028;-88
2023/08/15 06:38:51;;;;;;;9.13;4.43;;;;;;;29.96;100.00;96220.38;5040942;28;20035;-87
2023/08/15 06:41:30;;;;;;;8.18;4.65;;;;;;;29.95;100.00;96225.00;5041318;28;20024;-87
2023/08/15 06:43:57;;;;;;;7.28;4.10;;;;;;;30.12;100.00;96226.50;5060058;28;20017;-87
2023/08/15 06:46:22;;;;;;;9.60;4.53;;;;;;;29.93;100.00;96227.19;5059775;28;20025;-87
2023/08/15 06:48:48;;;;;;;10.05;5.03;;;;;;;29.57;100.00;96230.09;5057960;28;20040;-86
2023/08/15 06:51:14;;;;;;;8.20;4.32;;;;;;;29.87;100.00;96231.03;5063851;28;20024;-87
2023/08/15 06:53:45;;;;;;;7.80;5.05;;;;;;;29.80;100.00;96228.63;5058234;28;20036;-87
2023/08/15 06:56:11;;;;;;;11.25;5.07;;;;;;;30.51;100.00;96221.00;5060743;28;20113;-87
2023/08/15 06:58:37;;;;;;;7.38;3.85;;;;;;;31.48;100.00;96230.78;5045182;28;21321;-86
2023/08/15 07:01:06;;;;;;;6.80;4.50;;;;;;;31.99;100.00;96223.78;5042899;28;20502;-87
2023/08/15 07:03:33;;;;;;;12.88;4.38;;;;;;;32.98;100.00;96226.16;5048492;28;20033;-87
2023/08/15 07:05:59;;;;;;;7.10;3.90;;;;;;;33.19;100.00;96228.47;5061605;28;20087;-87
2023/08/15 07:08:25;;;;;;;7.35;4.72;;;;;;;32.98;100.00;96239.78;5048120;28;20035;-87
2023/08/15 07:10:55;;;;;;;6.25;3.97;;;;;;;33.29;100.00;96233.72;5043578;28;20040;-87
2023/08/15 07:13:25;;;;;;;9.95;4.18;;;;;;;33.87;100.00;96238.47;5055649;28;20032;-87
2023/08/15 07:15:55;;;;;;;5.88;3.92;;;;;;;34.61;100.00;96239.94;5064383;28;20025;-88
2023/08/15 07:18:21;;;;;;;6.20;3.72;;;;;;;34.23;100.00;96243.06;5055474;28;20032;-87
2023/08/15 07:20:47;;;;;;;8.20;4.53;;;;;;;34.56;100.00;96237.38;5062751;28;20029;-86
2023/08/15 07:23:13;;;;;;;8.32;4.25;;;;;;;35.13;100.00;96237.47;5048712;28;20025;-88
2023/08/15 07:25:51;;;;;;;6.78;3.85;;;;;;;34.66;100.00;96246.09;5045117;28;20017;-87
2023/08/15 07:28:17;;;;;;;11.77;4.03;;;;;;;34.84;100.00;96244.22;5064011;28;20500;-92
2023/08/15 07:30:48;;;;;;;8.90;4.63;;;;;;;34.88;100.00;96238.97;5036814;28;20024;-87
2023/08/15 07:33:15;;;;;;;5.72;4.22;;;;;;;35.18;98.94;96242.81;5034663;28;20025;-88
2023/08/15 07:35:42;;;;;;;20.77;18.58;;;;;;;35.26;100.00;96244.75;5053926;28;20040;-92
2023/08/15 07:38:08;;;;;;;5.60;4.07;;;;;;;35.53;97.88;96253.84;5056429;28;20024;-87
2023/08/15 07:40:36;;;;;;;6.95;4.38;;;;;;;35.54;98.29;96250.78;5056936;28;20036;-87
2023/08/15 07:43:01;;;;;;;7.93;4.70;;;;;;;35.55;98.91;96263.34;5060376;28;20028;-87
2023/08/15 07:45:27;;;;;;;9.05;4.88;;;;;;;36.39;89.73;96258.53;5035719;28;20402;-87
2023/08/15 07:47:53;;;;;;;8.93;4.40;;;;;;;37.11;87.38;96256.91;5052858;28;20107;-88
2023/08/15 07:50:27;;;;;;;7.05;4.55;;;;;;;36.66;86.56;96262.84;5051357;28;20143;-88
2023/08/15 07:52:54;;;;;;;10.20;4.47;;;;;;;36.64;88.96;96259.63;5052275;28;20055;-87
2023/08/15 07:55:20;;;;;;;6.53;4.55;;;;;;;35.38;95.20;96268.72;5034751;28;20021;-86
2023/08/15 07:57:46;;;;;;;8.20;4.25;;;;;;;35.29;98.08;96260.50;5035056;28;20025;-87
2023/08/15 08:00:34;;;;;;;6.80;4.55;;;;;;;36.37;90.74;96260.00;5056791;28;20085;-88
2023/08/15 08:02:59;;;;;;;6.93;4.78;;;;;;;36.81;88.63;96273.28;5063902;28;20052;-87
2023/08/15 08:05:25;;;;;;;6.15;4.72;;;;;;;37.47;83.24;96259.16;5061731;28;20028;-87
2023/08/15 08:07:51;;;;;;;8.55;4.88;;;;;;;37.41;82.74;96265.94;5064658;28;20021;-88
2023/08/15 08:10:17;;;;;;;7.22;5.00;;;;;;;36.50;81.94;96275.47;5063969;28;20395;-88
2023/08/15 08:12:42;;;;;;;6.10;4.57;;;;;;;36.01;89.51;96283.84;5048621;28;20032;-88
2023/08/15 08:15:09;;;;;;;7.97;5.53;;;;;;;35.60;92.46;96278.78;5064548;28;20025;-90
2023/08/15 08:17:35;;;;;;;6.97;4.80;;;;;;;35.34;91.52;96289.63;5062728;28;20029;-87
2023/08/15 08:20:00;;;;;;;8.32;4.90;;;;;;;35.46;94.48;96278.09;5039203;28;20084;-86
2023/08/15 08:22:26;;;;;;;6.75;4.85;;;;;;;34.96;100.00;96285.44;5043211;28;20025;-86
2023/08/15 08:24:53;;;;;;;5.63;4.45;;;;;;;35.17;100.00;96284.91;5057056;28;20367;-87
2023/08/15 08:27:19;;;;;;;7.20;4.80;;;;;;;34.66;100.00;96292.53;5056106;28;20032;-86
2023/08/15 08:29:45;;;;;;;8.88;5.13;;;;;;;34.07;100.00;96293.69;5049229;28;20434;-87
2023/08/15 08:32:10;;;;;;;7.25;5.05;;;;;;;34.16;100.00;96280.91;5042738;28;20024;-87
2023/08/15 08:34:39;;;;;;;7.75;4.90;;;;;;;34.40;100.00;96281.41;5056703;28;20024;-88
2023/08/15 08:37:05;;;;;;;7.22;4.75;;;;;;;34.30;100.00;96284.38;5066415;28;20368;-87
2023/08/15 08:39:30;;;;;;;6.95;5.20;;;;;;;34.25;100.00;96293.50;5064300;28;20096;-87
2023/08/15 08:42:04;;;;;;;7.60;5.88;;;;;;;33.85;100.00;96288.97;5045674;28;20025;-87
2023/08/15 08:44:31;;;;;;;7.45;5.18;;;;;;;33.55;100.00;96286.59;5046345;28;20028;-87
2023/08/15 08:46:58;;;;;;;9.10;4.95;;;;;;;34.19;100.00;96280.28;5060529;28;20033;-87
2023/08/15 08:49:27;;;;;;;7.55;5.35;;;;;;;34.06;100.00;96283.88;5043858;28;20062;-87
2023/08/15 08:51:55;;;;;;;9.43;5.55;;;;;;;34.03;100.00;96291.56;5060904;28;20033;-87
2023/08/15 08:54:21;;;;;;;8.88;5.57;;;;;;;33.97;100.00;96297.41;5062052;28;20032;-85
2023/08/15 08:56:54;;;;;;;10.20;6.68;;;;;;;33.96;100.00;96288.44;5061218;28;20028;-85
2023/08/15 08:59:23;;;;;;;9.57;6.45;;;;;;;33.63;100.00;96290.53;5044464;28;20102;-85
2023/08/15 09:01:49;;;;;;;9.02;6.30;;;;;;;33.81;100.00;96299.69;5045327;28;20063;-85
2023/08/15 09:04:19;;;;;;;6.32;5.07;;;;;;;34.37;100.00;96289.41;5054604;28;20028;-85
2023/08/15 09:06:46;;;;;;;8.75;5.85;;;;;;;33.55;100.00;96294.78;5032729;28;20029;-86
2023/08/15 09:09:12;;;;;;;8.57;5.30;;;;;;;33.84;100.00;96290.06;5037388;28;20068;-85
2023/08/15 09:11:37;;;;;;;8.10;5.82;;;;;;;34.26;100.00;96294.31;5043385;28;20027;-86
2023/08/15 09:14:04;;;;;;;9.32;5.63;;;;;;;34.07;100.00;96299.94;5043227;28;20150;-85
2023/08/15 09:16:31;;;;;;;8.18;5.57;;;;;;;34.19;100.00;96302.13;5028697;28;20853;-84
2023/08/15 09:19:02;;;;;;;7.40;5.20;;;;;;;34.05;100.00;96298.66;5044633;28;20391;-85
2023/08/15 09:21:28;;;;;;;7.22;5.55;;;;;;;33.84;100.00;96304.53;5040260;28;20055;-85
2023/08/15 09:23:56;;;;;;;6.88;5.07;;;;;;;34.25;100.00;96304.44;5041950;28;20028;-85
2023/08/15 09:26:33;;;;;;;8.55;5.32;;;;;;;34.00;100.00;96308.56;5022638;28;20720;-85
2023/08/15 09:28:59;;;;;;;7.78;6.35;;;;;;;34.07;100.00;96308.13;5039617;28;20033;-85
2023/08/15 09:31:25;;;;;;;7.13;4.88;;;;;;;34.06;100.00;96309.25;5037470;28;20214;-85
2023/08/15 09:33:50;;;;;;;7.80;4.85;;;;;;;33.66;100.00;96309.00;5023704;28;20052;-84
2023/08/15 09:36:16;;;;;;;8.45;5.57;;;;;;;33.35;100.00;96308.81;5052029;28;20028;-85
2023/08/15 09:38:42;;;;;;;11.70;4.75;;;;;;;33.76;100.00;96311.50;5053816;28;20037;-85
2023/08/15 09:41:14;;;;;;;7.65;5.20;;;;;;;33.41;100.00;96307.59;5043173;28;20020;-85
2023/08/15 09:43:50;;;;;;;7.40;4.93;;;;;;;33.07;100.00;96308.00;5056293;28;20082;-85
2023/08/15 09:46:18;;;;;;;9.77;6.15;;;;;;;33.56;100.00;96309.22;5053527;28;20642;-85
2023/08/15 09:48:53;;;;;;;9.68;4.63;;;;;;;33.16;100.00;96310.81;5040666;28;20116;-85
2023/08/15 09:51:18;;;;;;;8.38;5.30;;;;;;;33.26;100.00;96316.06;5044145;28;20021;-85
2023/08/15 09:53:46;;;;;;;9.30;5.18;;;;;;;33.00;100.00;96313.84;5060523;28;20082;-85
2023/08/15 09:56:18;;;;;;;6.00;4.60;;;;;;;33.07;100.00;96319.72;5051157;28;20021;-86
2023/08/15 09:58:43;;;;;;;8.60;5.03;;;;;;;33.10;100.00;96321.03;5062375;28;20505;-86
2023/08/15 10:01:10;;;;;;;11.18;5.95;;;;;;;32.65;100.00;96314.47;5061272;28;20033;-85
2023/08/15 10:03:38;;;;;;;7.88;5.00;;;;;;;33.05;100.00;96310.22;5049809;28;20021;-85
2023/08/15 10:06:18;;;;;;;7.90;5.75;;;;;;;32.58;100.00;96314.84;5061734;28;20040;-85
2023/08/15 10:08:46;;;;;;;8.70;5.15;;;;;;;32.99;100.00;96314.94;5064439;28;20471;-85
2023/08/15 10:11:12;;;;;;;7.32;4.80;;;;;;;32.77;100.00;96321.06;5042585;28;20025;-85
2023/08/15 10:13:41;;;;;;;9.93;5.63;;;;;;;32.76;100.00;96332.22;5057770;28;20012;-84
2023/08/15 10:16:12;;;;;;;9.55;5.97;;;;;;;32.76;100.00;96327.59;5058176;28;20063;-84
2023/08/15 10:18:37;;;;;;;7.30;5.10;;;;;;;32.54;100.00;96328.25;5059088;28;20398;-85
2023/08/15 10:21:03;;;;;;;9.65;5.68;;;;;;;32.33;100.00;96324.22;5044565;28;20027;-84
2023/08/15 10:23:30;;;;;;;7.68;5.22;;;;;;;32.60;100.00;96321.63;5060489;28;20033;-83
2023/08/15 10:25:58;;;;;;;8.82;5.28;;;;;;;32.75;100.00;96333.34;5045901;28;20402;-84
2023/08/15 10:28:47;;;;;;;8.02;6.00;;;;;;;32.78;100.00;96328.09;5045945;28;20043;-88
2023/08/15 10:31:13;;;;;;;13.52;6.25;;;;;;;32.83;100.00;96324.47;5027809;28;21359;-84
2023/08/15 10:33:41;;;;;;;7.30;5.35;;;;;;;33.25;100.00;96326.19;5029188;28;20017;-86
2023/08/15 10:36:08;;;;;;;7.47;5.13;;;;;;;32.79;100.00;96337.06;5030167;28;20105;-85
2023/08/15 10:38:39;;;;;;;8.95;5.78;;;;;;;33.05;100.00;96327.38;5045662;28;20021;-89
2023/08/15 10:41:07;;;;;;;9.32;5.22;;;;;;;33.40;100.00;96333.25;5029002;28;20024;-86
2023/08/15 10:43:34;;;;;;;8.80;5.05;;;;;;;33.68;100.00;96323.16;5034266;28;20025;-85
2023/08/15 10:46:02;;;;;;;6.93;4.57;;;;;;;33.81;100.00;96328.91;5032508;28;20219;-84
2023/08/15 10:48:44;;;;;;;7.38;5.10;;;;;;;33.09;100.00;96333.81;5029569;28;20056;-83
2023/08/15 10:51:48;;;;;;;9.07;3.92;;;;;;;32.62;97.74;96329.47;5025761;28;20709;-83
2023/08/15 10:54:14;;;;;;;8.48;4.20;;;;;;;33.17;96.35;96323.38;5012180;28;20043;-85
2023/08/15 10:56:42;;;;;;;8.27;4.18;;;;;;;33.32;95.49;96321.13;5015694;28;20032;-85
2023/08/15 10:59:13;;;;;;;9.40;4.55;;;;;;;33.37;97.47;96322.97;5034927;28;20743;-85
2023/08/15 11:01:45;;;;;;;7.75;4.10;;;;;;;33.27;95.99;96331.34;5047048;28;20025;-84
2023/08/15 11:04:19;;;;;;;5.90;4.10;;;;;;;32.82;94.88;96333.75;5055453;28;20095;-83
2023/08/15 11:06:48;;;;;;;8.02;4.10;;;;;;;32.71;99.97;96327.69;5073766;28;20040;-85
2023/08/15 11:09:14;;;;;;;7.80;4.80;;;;;;;32.52;100.00;96335.88;5043097;28;20366;-85
2023/08/15 11:11:40;;;;;;;11.57;8.00;;;;;;;32.83;100.00;96324.47;5060158;28;20024;-85
2023/08/15 11:14:17;;;;;;;7.80;4.40;;;;;;;32.37;100.00;96334.19;5049792;28;20489;-85
2023/08/15 11:16:44;;;;;;;7.72;4.85;;;;;;;32.35;100.00;96341.03;5041061;28;20112;-86
2023/08/15 11:19:13;;;;;;;7.13;4.18;;;;;;;32.72;100.00;96332.03;5046883;28;20036;-85
2023/08/15 11:21:39;;;;;;;9.52;5.00;;;;;;;32.89;100.00;96326.00;5057144;28;20029;-86
2023/08/15 11:24:05;;;;;;;9.60;4.75;;;;;;;32.72;100.00;96339.38;5051876;28;20031;-86
2023/08/15 11:26:30;;;;;;;8.05;4.32;;;;;;;32.70;100.00;96341.63;5054513;28;20549;-85
2023/08/15 11:29:00;;;;;;;9.93;4.57;;;;;;;32.57;100.00;96340.47;5038897;28;20036;-85